New Quay, United Kingdom
Current Conditions -  °F | °C
As of 3:50 AM on Saturday 20 Dec 2014 (Local Time) from EGOP Reporting Station
Few Clouds Few Clouds  
Wind Chill: 41°   Ceiling: Unl
Heat Index: 48°   Visibility: 6mi
Dew Point: 41°   Wind: 22mph
Humidity: 76%   Direction: 280°W
Pressure: 30.3"   Gusts: NA
Location:  52.21°N, 4.37°W
Report Text: EGOP 200350Z AUTO 28019KT 9999 // FEW043/// 09/05 Q1026
Loading
Personal Weather Stations






























Interactive Weather Map New forecast layout! Learn more

10-Day Weather Forecast

Advertisements
Track Severe Weather on mobile